Belfort, France

4:37 PM CEST on August 30, 2015 (GMT +0200)
belfort | | Change Station
CLOSE
Current Station
Personal Weather Station
Location: Perouse, FRANCHE-COMTé
Elevation: 1227 ft
Nearby Weather Stations

Elev 1227 ft 47.64 °N, 6.90 °E | Updated 6 minutes ago

Clear
Clear
95.4 °F
Feels Like 93 °F
N
0.0
Wind Variable Wind from WNW

Today
High -- | Low -- °F
--% Chance of Precip.
Yesterday
High -- | Low -- °F
Precip. -- in
6:47 AM 8:17 PM
Full, 99% visible
Pressure 30.04 in
Visibility -9999.0 miles
Clouds
Heat Index 93 °F
Dew Point 52 °F
Humidity 24%
Rainfall in
Snow Depth Not available.
UV Not available.
Pollen Not available.
Air Quality Not available.
Flu Activity Not available.
METAR LFSX 301430Z AUTO VRB02KT CAVOK 34/13 Q1017
Pressure 30.04 in
Visibility -9999.0 miles
Clouds
Heat Index 93 °F
Dew Point 52 °F
Humidity 24%
Rainfall in
Snow Depth Not available.
UV Not available.
Pollen Not available.
Air Quality Not available.
Flu Activity Not available.
METAR LFSX 301430Z AUTO VRB02KT CAVOK 34/13 Q1017

10-Day Weather Forecast

×

Almanac

Astronomy

Aug. 30, 2015 Rise Set
Actual Time
Civil Twilight
Nautical Twilight
Astronomical Twilight
Moon
Length of Visible Light
Length of Day
Tomorrow will be .
, % of the Moon is Illuminated

Today's Extremes

Country Highs Country Lows

Community

WunderPhotos

Upload Photos

1,850,974 photos uploaded!

WunderBlogs® & News

Nearby

Air Quality

  Air Quality AQ Index Pollutant
Not available.

Snow Depth

Station Depth Elevation

Earthquake Activity

City Distance Mag. Time & Date
Minimum magnitude displayed is 2.5.

Coastal Water Temperatures

Place Temperature

Stations

Nearby Weather Stations

Station Location Temp. Windchill Dew Point Humidity Wind Precip. Elev Updated Type